Time;durP1;ratioP1;P1;durP2;ratioP2;P2;SDS_P1;SDS_P2;PMS_P1;PMS_P2;Temp;Humidity;BMP_temperature;BMP_pressure;BME280_temperature;BME280_humidity;BME280_pressure;Samples;Min_cycle;Max_cycle;Signal;HPM_P1;HPM_P2
2021/12/09 00:01:57;;;;;;;7.60;2.13;;;;;;;;;;5039521;28;20128;-85
2021/12/09 00:04:30;;;;;;;7.82;1.98;;;;;;;;;;5056939;28;20507;-79
2021/12/09 00:07:00;;;;;;;11.80;2.30;;;;;;;;;;5023137;28;20076;-85
2021/12/09 00:09:33;;;;;;;7.80;1.90;;;;;;;;;;5039561;28;20480;-82
2021/12/09 00:12:01;;;;;;;13.57;2.30;;;;;;;;;;5039264;28;20041;-80
2021/12/09 00:14:34;;;;;;;6.60;1.90;;;;;;;;;;5022525;28;20045;-85
2021/12/09 00:17:07;;;;;;;10.57;2.03;;;;;;;;;;5039364;28;20068;-81
2021/12/09 00:19:35;;;;;;;10.95;2.25;;;;;;;;;;5022292;28;20049;-82
2021/12/09 00:22:07;;;;;;;19.48;3.17;;;;;;;;;;5038811;28;20045;-83
2021/12/09 00:24:35;;;;;;;13.18;2.50;;;;;;;;;;5056613;28;20067;-83
2021/12/09 00:27:04;;;;;;;14.38;3.10;;;;;;;;;;5039202;28;20051;-79
2021/12/09 00:29:32;;;;;;;19.27;2.60;;;;;;;;;;5022135;28;20040;-87
2021/12/09 00:31:59;;;;;;;10.68;2.08;;;;;;;;;;5038777;28;20048;-81
2021/12/09 00:34:32;;;;;;;15.43;2.30;;;;;;;;;;5038630;28;20037;-85
2021/12/09 00:37:15;;;;;;;16.13;2.80;;;;;;;;;;5056266;28;20076;-82
2021/12/09 00:39:44;;;;;;;12.97;2.77;;;;;;;;;;5056577;28;20120;-82
2021/12/09 00:42:13;;;;;;;23.00;2.92;;;;;;;;;;5038662;28;20041;-85
2021/12/09 00:44:40;;;;;;;14.82;2.65;;;;;;;;;;5038137;28;20076;-80
2021/12/09 00:47:08;;;;;;;20.40;2.80;;;;;;;;;;5055969;28;20037;-85
2021/12/09 00:49:41;;;;;;;18.65;2.75;;;;;;;;;;5022181;28;20406;-79
2021/12/09 00:52:08;;;;;;;19.75;3.35;;;;;;;;;;5055991;28;20060;-85
2021/12/09 00:54:36;;;;;;;18.13;2.97;;;;;;;;;;5038088;28;20041;-79
2021/12/09 00:57:07;;;;;;;20.48;3.10;;;;;;;;;;5038314;28;20052;-80
2021/12/09 00:59:35;;;;;;;28.13;3.35;;;;;;;;;;5038052;28;20052;-80
2021/12/09 01:02:03;;;;;;;19.38;3.38;;;;;;;;;;5038241;28;20037;-80
2021/12/09 01:04:30;;;;;;;18.10;3.17;;;;;;;;;;5038368;28;20040;-80
2021/12/09 01:06:58;;;;;;;20.88;3.67;;;;;;;;;;5037727;28;20041;-85
2021/12/09 01:09:25;;;;;;;22.90;3.63;;;;;;;;;;5038007;28;20500;-82
2021/12/09 01:11:55;;;;;;;14.70;2.88;;;;;;;;;;5021777;28;20112;-80
2021/12/09 01:14:22;;;;;;;19.00;3.20;;;;;;;;;;5037660;28;20037;-80
2021/12/09 01:16:50;;;;;;;26.67;3.70;;;;;;;;;;5021418;28;20045;-80
2021/12/09 01:19:19;;;;;;;20.45;3.83;;;;;;;;;;5036914;28;20131;-80
2021/12/09 01:21:47;;;;;;;17.02;2.80;;;;;;;;;;5017937;28;20061;-80
2021/12/09 01:24:17;;;;;;;22.25;3.28;;;;;;;;;;5017597;28;20492;-81
2021/12/09 01:26:48;;;;;;;19.73;2.95;;;;;;;;;;5017859;28;20034;-83
2021/12/09 01:29:20;;;;;;;23.42;2.75;;;;;;;;;;5017515;28;20049;-83
2021/12/09 01:31:57;;;;;;;28.88;3.72;;;;;;;;;;5035194;28;20065;-81
2021/12/09 01:34:25;;;;;;;25.52;3.45;;;;;;;;;;5017458;28;20086;-80
2021/12/09 01:36:54;;;;;;;29.73;3.35;;;;;;;;;;5035540;28;20049;-80
2021/12/09 01:39:22;;;;;;;27.27;3.97;;;;;;;;;;5035371;28;20129;-80
2021/12/09 01:41:55;;;;;;;28.17;3.92;;;;;;;;;;5017847;28;20045;-83
2021/12/09 01:44:25;;;;;;;28.25;3.97;;;;;;;;;;5017540;28;20481;-81
2021/12/09 01:46:55;;;;;;;30.95;3.45;;;;;;;;;;5017247;28;20120;-80
2021/12/09 01:49:23;;;;;;;31.65;3.40;;;;;;;;;;5035502;28;20041;-81
2021/12/09 01:51:51;;;;;;;31.02;4.20;;;;;;;;;;5035130;28;20056;-81
2021/12/09 01:54:23;;;;;;;35.15;4.15;;;;;;;;;;5016973;28;20079;-83
2021/12/09 01:56:50;;;;;;;44.35;4.72;;;;;;;;;;5017029;28;20465;-85
2021/12/09 01:59:19;;;;;;;34.15;4.00;;;;;;;;;;5034812;28;20547;-81
2021/12/09 02:01:47;;;;;;;29.92;3.08;;;;;;;;;;5017198;28;20107;-85
2021/12/09 02:04:15;;;;;;;42.47;4.63;;;;;;;;;;5016958;28;20053;-85
2021/12/09 02:06:46;;;;;;;37.25;4.32;;;;;;;;;;5016874;28;20088;-85
2021/12/09 02:09:19;;;;;;;40.20;4.88;;;;;;;;;;5000161;28;20153;-85
2021/12/09 02:11:47;;;;;;;45.65;4.22;;;;;;;;;;5016897;28;20045;-80
2021/12/09 02:14:15;;;;;;;30.88;4.03;;;;;;;;;;5000663;28;20064;-80
2021/12/09 02:16:42;;;;;;;31.52;4.00;;;;;;;;;;5000643;28;20046;-80
2021/12/09 02:19:13;;;;;;;30.77;4.97;;;;;;;;;;5016327;28;20077;-86
2021/12/09 02:21:42;;;;;;;35.85;4.13;;;;;;;;;;5016462;28;20045;-80
2021/12/09 02:24:11;;;;;;;37.15;5.35;;;;;;;;;;5034586;28;20052;-81
2021/12/09 02:26:40;;;;;;;32.90;3.75;;;;;;;;;;5016911;28;20041;-81
2021/12/09 02:29:09;;;;;;;29.35;5.22;;;;;;;;;;5016492;28;20044;-85
2021/12/09 02:31:37;;;;;;;26.00;3.95;;;;;;;;;;5034267;28;20041;-85
2021/12/09 02:34:05;;;;;;;34.90;5.07;;;;;;;;;;5034621;28;20042;-85
2021/12/09 02:36:39;;;;;;;38.60;5.35;;;;;;;;;;5016938;28;20151;-80
2021/12/09 02:39:08;;;;;;;37.92;5.53;;;;;;;;;;5033350;28;20045;-83
2021/12/09 02:41:36;;;;;;;31.50;5.57;;;;;;;;;;5016552;28;20052;-80
2021/12/09 02:44:07;;;;;;;33.92;4.75;;;;;;;;;;5016740;28;20049;-81
2021/12/09 02:46:37;;;;;;;38.90;4.82;;;;;;;;;;5016360;28;20044;-85
2021/12/09 02:49:08;;;;;;;39.30;4.75;;;;;;;;;;5016181;28;20515;-81
2021/12/09 02:51:37;;;;;;;32.22;5.18;;;;;;;;;;5016421;28;20053;-83
2021/12/09 02:54:05;;;;;;;35.47;4.75;;;;;;;;;;5016208;28;20357;-80
2021/12/09 02:56:37;;;;;;;36.20;4.95;;;;;;;;;;5015809;28;20049;-80
2021/12/09 02:59:05;;;;;;;30.48;4.03;;;;;;;;;;5015922;28;20045;-85
2021/12/09 03:01:34;;;;;;;36.40;5.65;;;;;;;;;;5033745;28;20473;-80
2021/12/09 03:04:04;;;;;;;32.88;4.93;;;;;;;;;;5016385;28;20420;-83
2021/12/09 03:06:33;;;;;;;39.25;4.80;;;;;;;;;;5032737;28;20044;-83
2021/12/09 03:09:04;;;;;;;30.92;3.97;;;;;;;;;;5015929;28;20056;-83
2021/12/09 03:11:31;;;;;;;37.22;6.43;;;;;;;;;;5016109;28;20041;-81
2021/12/09 03:13:59;;;;;;;29.70;5.88;;;;;;;;;;5033754;28;20489;-82
2021/12/09 03:16:28;;;;;;;40.13;5.97;;;;;;;;;;5016079;28;20049;-83
2021/12/09 03:18:57;;;;;;;33.83;6.88;;;;;;;;;;5015689;28;20084;-80
2021/12/09 03:21:32;;;;;;;37.70;6.82;;;;;;;;;;5032466;28;20073;-84
2021/12/09 03:24:00;;;;;;;42.20;7.80;;;;;;;;;;5015752;28;20103;-80
2021/12/09 03:26:33;;;;;;;37.83;6.57;;;;;;;;;;5015569;28;20044;-80
2021/12/09 03:29:05;;;;;;;28.63;5.05;;;;;;;;;;5015839;28;20041;-83
2021/12/09 03:31:33;;;;;;;37.83;5.13;;;;;;;;;;5033227;28;20072;-81
2021/12/09 03:34:03;;;;;;;43.47;5.00;;;;;;;;;;5015642;28;20042;-81
2021/12/09 03:36:34;;;;;;;36.03;4.95;;;;;;;;;;4998940;28;20076;-80
2021/12/09 03:39:04;;;;;;;45.38;6.00;;;;;;;;;;5015988;28;20141;-79
2021/12/09 03:41:32;;;;;;;27.92;4.47;;;;;;;;;;5015565;28;20057;-80
2021/12/09 03:43:59;;;;;;;38.75;5.38;;;;;;;;;;5032596;28;20077;-83
2021/12/09 03:46:27;;;;;;;44.33;4.88;;;;;;;;;;4999001;28;20041;-80
2021/12/09 03:49:00;;;;;;;44.85;5.10;;;;;;;;;;5031944;28;20553;-81
2021/12/09 03:51:29;;;;;;;;;;;;;;;;;;5016116;28;20034;-83
2021/12/09 03:53:56;;;;;;;40.92;5.60;;;;;;;;;;5015471;28;19976;-83
2021/12/09 03:56:24;;;;;;;57.08;6.75;;;;;;;;;;5015251;28;20045;-80
2021/12/09 03:58:55;;;;;;;45.05;4.93;;;;;;;;;;5032638;28;20121;-80
2021/12/09 04:01:22;;;;;;;43.88;6.03;;;;;;;;;;5015203;28;20048;-80
2021/12/09 04:03:55;;;;;;;45.00;5.22;;;;;;;;;;5015246;28;20049;-83
2021/12/09 04:06:23;;;;;;;42.33;4.80;;;;;;;;;;5014942;28;20133;-83
2021/12/09 04:08:51;;;;;;;50.03;5.57;;;;;;;;;;5015221;28;20128;-83
2021/12/09 04:11:20;;;;;;;39.67;5.97;;;;;;;;;;4999025;28;20440;-83
2021/12/09 04:13:47;;;;;;;36.78;6.15;;;;;;;;;;5015664;28;20053;-80
2021/12/09 04:16:15;;;;;;;42.15;5.35;;;;;;;;;;5031503;28;20075;-85
2021/12/09 04:18:44;;;;;;;41.97;5.30;;;;;;;;;;5015526;28;20432;-81
2021/12/09 04:21:12;;;;;;;41.75;4.45;;;;;;;;;;5032929;28;20501;-83
2021/12/09 04:23:40;;;;;;;36.15;5.43;;;;;;;;;;5031775;28;20048;-85
2021/12/09 04:26:08;;;;;;;39.75;6.30;;;;;;;;;;5015798;28;20071;-81
2021/12/09 04:28:39;;;;;;;35.60;4.90;;;;;;;;;;5015027;28;20414;-80
2021/12/09 04:31:07;;;;;;;52.20;6.65;;;;;;;;;;5015453;28;20481;-85
2021/12/09 04:33:35;;;;;;;51.88;5.25;;;;;;;;;;5001330;28;20041;-80
2021/12/09 04:36:04;;;;;;;42.85;4.88;;;;;;;;;;5019109;28;20041;-80
2021/12/09 04:38:31;;;;;;;51.35;5.55;;;;;;;;;;5018769;28;20077;-80
2021/12/09 04:40:59;;;;;;;40.75;5.63;;;;;;;;;;5002755;28;20223;-81
2021/12/09 04:43:30;;;;;;;39.08;5.32;;;;;;;;;;5018350;28;20124;-83
2021/12/09 04:45:59;;;;;;;38.92;5.07;;;;;;;;;;5018550;28;20049;-81
2021/12/09 04:48:27;;;;;;;45.13;4.85;;;;;;;;;;5018302;28;20048;-85
2021/12/09 04:50:55;;;;;;;53.55;5.10;;;;;;;;;;5001981;28;20041;-85
2021/12/09 04:53:25;;;;;;;41.65;5.10;;;;;;;;;;5018393;28;20398;-81
2021/12/09 04:55:53;;;;;;;35.55;7.25;;;;;;;;;;5017845;28;20049;-85
2021/12/09 04:58:23;;;;;;;49.30;5.28;;;;;;;;;;5002141;28;20045;-86
2021/12/09 05:00:51;;;;;;;38.20;5.50;;;;;;;;;;5018674;28;20144;-80
2021/12/09 05:03:21;;;;;;;34.10;4.97;;;;;;;;;;5019223;28;20431;-79
2021/12/09 05:05:51;;;;;;;37.90;6.15;;;;;;;;;;5018036;28;20517;-83
2021/12/09 05:08:21;;;;;;;44.78;5.43;;;;;;;;;;5035589;28;20046;-81
2021/12/09 05:11:48;;;;;;;43.58;6.03;;;;;;;;;;5018245;28;20041;-85
2021/12/09 05:13:42;;;;;;;43.25;6.25;;;;;;;;;;5027748;28;20518;-83
2021/12/09 05:16:10;;;;;;;42.35;6.10;;;;;;;;;;5017997;28;20041;-79
2021/12/09 05:18:42;;;;;;;48.75;7.30;;;;;;;;;;5018334;28;20042;-85
2021/12/09 05:21:12;;;;;;;32.30;6.30;;;;;;;;;;5018147;28;20045;-83
2021/12/09 05:23:43;;;;;;;48.85;6.65;;;;;;;;;;5018120;28;20114;-80
2021/12/09 05:26:19;;;;;;;46.38;6.40;;;;;;;;;;5001686;28;20508;-85
2021/12/09 05:28:54;;;;;;;51.03;6.80;;;;;;;;;;5035514;28;20045;-85
2021/12/09 05:34:08;;;;;;;54.53;5.68;;;;;;;;;;5017679;28;20103;-80
2021/12/09 05:36:36;;;;;;;34.00;6.07;;;;;;;;;;5017672;28;20045;-85
2021/12/09 05:39:07;;;;;;;40.83;6.18;;;;;;;;;;5035413;28;20049;-83
2021/12/09 05:41:35;;;;;;;32.38;4.88;;;;;;;;;;5018292;28;20440;-84
2021/12/09 05:44:03;;;;;;;38.90;5.18;;;;;;;;;;5015979;28;20080;-85
2021/12/09 05:46:36;;;;;;;51.15;6.57;;;;;;;;;;5018072;28;20037;-83
2021/12/09 05:51:57;;;;;;;41.95;6.25;;;;;;;;;;5017283;28;20050;-79
2021/12/09 05:54:26;;;;;;;38.88;7.00;;;;;;;;;;5000773;28;20520;-79
2021/12/09 05:56:58;;;;;;;51.25;5.78;;;;;;;;;;5017032;28;20052;-83
2021/12/09 05:59:26;;;;;;;43.17;7.23;;;;;;;;;;5001037;28;20056;-84
2021/12/09 06:01:55;;;;;;;45.50;7.22;;;;;;;;;;5016912;28;20045;-79
2021/12/09 06:04:22;;;;;;;44.15;6.65;;;;;;;;;;5034865;28;20064;-85
2021/12/09 06:06:50;;;;;;;44.15;7.32;;;;;;;;;;5017118;28;20386;-79
2021/12/09 06:09:19;;;;;;;56.33;10.07;;;;;;;;;;5016485;28;20077;-79
2021/12/09 06:11:49;;;;;;;45.30;9.32;;;;;;;;;;5016770;28;20045;-79
2021/12/09 06:14:17;;;;;;;41.53;8.10;;;;;;;;;;5016640;28;20041;-84
2021/12/09 06:16:49;;;;;;;37.20;7.70;;;;;;;;;;5016607;28;20132;-79
2021/12/09 06:19:17;;;;;;;36.38;6.97;;;;;;;;;;5034426;28;20042;-79
2021/12/09 06:21:45;;;;;;;43.88;6.88;;;;;;;;;;5016864;28;20041;-82
2021/12/09 06:24:13;;;;;;;49.28;6.65;;;;;;;;;;5017039;28;20107;-79
2021/12/09 06:26:41;;;;;;;52.47;7.28;;;;;;;;;;5016635;28;20053;-77
2021/12/09 06:29:09;;;;;;;50.80;7.07;;;;;;;;;;5033581;28;20056;-81
2021/12/09 06:31:39;;;;;;;42.95;6.63;;;;;;;;;;5016462;28;20072;-82
2021/12/09 06:34:06;;;;;;;36.22;5.80;;;;;;;;;;4999602;28;20045;-83
2021/12/09 06:36:34;;;;;;;47.88;6.95;;;;;;;;;;5017691;28;20058;-81
2021/12/09 06:39:02;;;;;;;53.58;6.60;;;;;;;;;;5034362;28;20045;-86
2021/12/09 06:41:30;;;;;;;50.28;5.85;;;;;;;;;;5016305;28;20068;-78
2021/12/09 06:43:57;;;;;;;50.42;6.85;;;;;;;;;;4999439;28;20056;-77
2021/12/09 06:46:25;;;;;;;44.03;6.57;;;;;;;;;;5015451;28;20054;-81
2021/12/09 06:48:53;;;;;;;46.05;6.05;;;;;;;;;;5014965;28;20065;-81
2021/12/09 06:51:22;;;;;;;48.78;6.78;;;;;;;;;;5033678;28;20103;-83
2021/12/09 06:53:49;;;;;;;38.80;6.60;;;;;;;;;;5015522;28;20068;-78
2021/12/09 06:56:17;;;;;;;40.28;6.72;;;;;;;;;;4998814;28;20045;-81
2021/12/09 06:58:44;;;;;;;39.35;5.32;;;;;;;;;;5031907;28;20092;-78
2021/12/09 07:01:13;;;;;;;43.78;6.00;;;;;;;;;;5032348;28;20041;-78
2021/12/09 07:03:42;;;;;;;47.10;6.78;;;;;;;;;;5033463;28;20041;-85
2021/12/09 07:06:12;;;;;;;53.33;6.68;;;;;;;;;;5015791;28;20049;-80
2021/12/09 07:08:50;;;;;;;47.20;7.55;;;;;;;;;;5014904;28;20049;-83
2021/12/09 07:11:21;;;;;;;33.35;7.05;;;;;;;;;;5033503;28;20041;-78
2021/12/09 07:13:49;;;;;;;34.10;6.55;;;;;;;;;;5047596;28;20186;-83
2021/12/09 07:16:17;;;;;;;31.83;6.05;;;;;;;;;;5032202;28;20033;-82
2021/12/09 07:18:45;;;;;;;37.97;5.82;;;;;;;;;;5052496;28;20067;-81
2021/12/09 07:21:12;;;;;;;38.30;6.47;;;;;;;;;;5034671;28;20053;-81
2021/12/09 07:23:40;;;;;;;42.42;6.22;;;;;;;;;;5018663;28;20051;-82
2021/12/09 07:26:08;;;;;;;46.83;7.03;;;;;;;;;;5018259;28;20045;-81
2021/12/09 07:28:36;;;;;;;49.42;8.13;;;;;;;;;;5035682;28;20039;-86
2021/12/09 07:31:06;;;;;;;51.78;8.75;;;;;;;;;;5052496;28;20110;-77
2021/12/09 07:33:33;;;;;;;42.08;7.25;;;;;;;;;;5034955;28;20075;-79
2021/12/09 07:36:01;;;;;;;45.78;8.02;;;;;;;;;;5035317;28;20071;-80
2021/12/09 07:38:29;;;;;;;55.80;7.35;;;;;;;;;;5017463;28;20048;-79
2021/12/09 07:40:57;;;;;;;53.45;7.95;;;;;;;;;;5052285;28;20455;-76
2021/12/09 07:43:24;;;;;;;55.03;8.40;;;;;;;;;;5032340;28;20075;-83
2021/12/09 07:45:55;;;;;;;57.13;8.45;;;;;;;;;;5034138;28;20503;-83
2021/12/09 07:48:23;;;;;;;45.17;7.50;;;;;;;;;;5031708;28;20041;-75
2021/12/09 07:50:52;;;;;;;47.42;7.47;;;;;;;;;;5001993;28;20056;-75
2021/12/09 07:53:21;;;;;;;58.20;8.93;;;;;;;;;;5033584;28;20057;-76
2021/12/09 07:55:50;;;;;;;64.53;7.93;;;;;;;;;;5037714;28;20056;-78
2021/12/09 07:58:21;;;;;;;52.40;6.85;;;;;;;;;;5034220;28;20103;-77
2021/12/09 08:00:49;;;;;;;40.30;5.90;;;;;;;;;;5033421;28;20053;-79
2021/12/09 08:03:18;;;;;;;33.42;5.63;;;;;;;;;;5034768;28;20071;-80
2021/12/09 08:05:48;;;;;;;31.42;5.35;;;;;;;;;;5050441;28;20063;-78
2021/12/09 08:08:16;;;;;;;19.92;4.22;;;;;;;;;;5036474;28;20079;-78
2021/12/09 08:10:44;;;;;;;20.05;4.30;;;;;;;;;;5038184;28;20041;-79
2021/12/09 08:13:14;;;;;;;10.35;2.78;;;;;;;;;;5055560;28;20033;-81
2021/12/09 08:15:48;;;;;;;12.38;3.28;;;;;;;;;;5055747;28;20059;-81
2021/12/09 08:20:50;;;;;;;10.77;3.63;;;;;;;;;;5037169;28;20495;-80
2021/12/09 08:23:17;;;;;;;9.02;3.30;;;;;;;;;;5037670;28;20038;-82
2021/12/09 08:25:48;;;;;;;11.50;3.72;;;;;;;;;;5021601;28;20060;-85
2021/12/09 08:28:16;;;;;;;9.23;2.70;;;;;;;;;;5038024;28;20044;-83
2021/12/09 08:30:46;;;;;;;10.07;3.40;;;;;;;;;;5032695;28;20124;-80
2021/12/09 08:33:20;;;;;;;12.85;2.95;;;;;;;;;;5037445;28;20045;-84
2021/12/09 08:35:47;;;;;;;6.70;3.40;;;;;;;;;;5048835;28;20131;-82
2021/12/09 08:38:15;;;;;;;8.27;2.65;;;;;;;;;;5053489;28;20037;-80
2021/12/09 08:40:46;;;;;;;6.40;2.78;;;;;;;;;;5036516;28;20041;-83
2021/12/09 08:43:14;;;;;;;6.97;2.50;;;;;;;;;;5021446;28;20047;-83
2021/12/09 08:46:06;;;;;;;6.55;2.35;;;;;;;;;;5055676;28;20124;-81
2021/12/09 08:48:36;;;;;;;7.57;2.28;;;;;;;;;;5038361;28;20049;-84
2021/12/09 08:51:07;;;;;;;5.22;1.80;;;;;;;;;;5038386;28;20136;-85
2021/12/09 08:53:35;;;;;;;6.43;1.92;;;;;;;;;;5056115;28;20465;-89
2021/12/09 08:56:04;;;;;;;2.83;1.45;;;;;;;;;;5037993;28;20737;-85
2021/12/09 08:58:33;;;;;;;5.47;1.50;;;;;;;;;;5038283;28;20094;-88
2021/12/09 09:01:11;;;;;;;3.53;1.95;;;;;;;;;;5021932;28;20049;-84
2021/12/09 09:03:42;;;;;;;4.57;1.52;;;;;;;;;;5037883;28;20463;-81
2021/12/09 09:06:10;;;;;;;3.28;1.80;;;;;;;;;;5037538;28;20163;-81
2021/12/09 09:08:38;;;;;;;3.13;1.42;;;;;;;;;;5055257;28;20064;-81
2021/12/09 09:11:05;;;;;;;3.08;1.40;;;;;;;;;;5037431;28;20140;-86
2021/12/09 09:13:34;;;;;;;4.28;1.65;;;;;;;;;;5055750;28;20044;-81
2021/12/09 09:16:02;;;;;;;4.35;0.90;;;;;;;;;;5037590;28;20075;-82
2021/12/09 09:18:29;;;;;;;1.70;0.80;;;;;;;;;;5037536;28;20041;-82
2021/12/09 09:20:57;;;;;;;1.80;0.82;;;;;;;;;;5036834;28;20086;-85
2021/12/09 09:23:25;;;;;;;2.50;0.90;;;;;;;;;;5054653;28;20401;-85
2021/12/09 09:25:53;;;;;;;0.90;0.90;;;;;;;;;;5017759;28;20048;-85
2021/12/09 09:28:27;;;;;;;3.83;1.30;;;;;;;;;;5051651;28;20083;-85
2021/12/09 09:30:57;;;;;;;2.75;1.58;;;;;;;;;;5036720;28;20037;-86
2021/12/09 09:33:26;;;;;;;2.42;1.70;;;;;;;;;;5036660;28;20052;-83
2021/12/09 09:35:54;;;;;;;3.53;1.75;;;;;;;;;;5037356;28;20057;-82
2021/12/09 09:38:23;;;;;;;2.88;1.55;;;;;;;;;;5020624;28;20500;-86
2021/12/09 09:41:08;;;;;;;1.95;1.20;;;;;;;;;;5055029;28;20045;-83
2021/12/09 09:46:26;;;;;;;0.90;0.90;;;;;;;;;;5036812;28;20135;-82
2021/12/09 09:48:56;;;;;;;4.93;1.02;;;;;;;;;;5037025;28;20037;-82
2021/12/09 09:51:24;;;;;;;1.85;0.63;;;;;;;;;;5036645;28;20040;-81
2021/12/09 09:53:52;;;;;;;1.95;0.68;;;;;;;;;;5055071;28;20469;-86
2021/12/09 09:56:23;;;;;;;9.52;1.02;;;;;;;;;;5036686;28;20135;-82
2021/12/09 09:58:54;;;;;;;1.50;0.80;;;;;;;;;;5036906;28;20057;-85
2021/12/09 10:01:22;;;;;;;2.15;0.68;;;;;;;;;;5036986;28;20055;-82
2021/12/09 10:03:52;;;;;;;1.33;0.90;;;;;;;;;;5036860;28;20044;-81
2021/12/09 10:06:20;;;;;;;2.28;1.60;;;;;;;;;;5020462;28;20412;-85
2021/12/09 10:08:48;;;;;;;1.58;1.33;;;;;;;;;;5036834;28;20086;-82
2021/12/09 10:11:16;;;;;;;2.40;0.90;;;;;;;;;;5054166;28;20087;-86
2021/12/09 10:13:45;;;;;;;2.58;0.80;;;;;;;;;;5036582;28;20048;-82
2021/12/09 10:16:17;;;;;;;2.17;0.85;;;;;;;;;;5054397;28;20048;-81
2021/12/09 10:18:47;;;;;;;2.15;1.20;;;;;;;;;;5045888;28;20064;-83
2021/12/09 10:21:28;;;;;;;4.05;1.45;;;;;;;;;;5004558;28;20469;-80
2021/12/09 10:24:06;;;;;;;2.08;1.33;;;;;;;;;;5012588;28;20124;-82
2021/12/09 10:26:41;;;;;;;0.73;0.73;;;;;;;;;;5026611;28;20045;-78
2021/12/09 10:29:14;;;;;;;0.68;0.47;;;;;;;;;;5026974;28;20037;-79
2021/12/09 10:31:44;;;;;;;1.20;0.90;;;;;;;;;;5022582;28;20038;-82
2021/12/09 10:34:59;;;;;;;0.75;0.70;;;;;;;;;;5041504;28;20130;-78
2021/12/09 10:37:04;;;;;;;0.90;0.80;;;;;;;;;;5030654;28;20068;-77
2021/12/09 10:39:33;;;;;;;3.78;1.25;;;;;;;;;;5024248;28;20480;-78
2021/12/09 10:42:06;;;;;;;0.55;0.50;;;;;;;;;;5025780;28;20037;-82
2021/12/09 10:44:45;;;;;;;16.00;1.83;;;;;;;;;;5025884;28;20043;-78
2021/12/09 10:47:20;;;;;;;0.75;0.50;;;;;;;;;;5043854;28;20468;-77
2021/12/09 10:50:03;;;;;;;0.47;0.47;;;;;;;;;;5042354;28;20037;-78
2021/12/09 10:52:41;;;;;;;2.22;0.65;;;;;;;;;;5088499;23;20058;-81
2021/12/09 10:55:32;;;;;;;1.33;1.23;;;;;;;;;;4986384;28;20043;-79
2021/12/09 10:58:14;;;;;;;2.13;0.70;;;;;;;;;;5000755;28;20141;-81
2021/12/09 11:00:54;;;;;;;3.90;0.70;;;;;;;;;;4979131;28;20125;-77
2021/12/09 11:03:27;;;;;;;2.60;0.85;;;;;;;;;;4989611;28;20042;-82
2021/12/09 11:06:18;;;;;;;2.78;0.80;;;;;;;;;;4993516;28;20077;-77
2021/12/09 11:08:54;;;;;;;1.73;0.70;;;;;;;;;;4983691;28;20413;-76
2021/12/09 11:11:28;;;;;;;2.58;0.50;;;;;;;;;;5000932;28;20064;-76
2021/12/09 11:13:58;;;;;;;0.90;0.60;;;;;;;;;;5002128;28;20423;-80
2021/12/09 11:16:38;;;;;;;0.50;0.50;;;;;;;;;;5002866;28;20128;-81
2021/12/09 11:19:11;;;;;;;1.58;0.60;;;;;;;;;;5004527;28;20046;-78
2021/12/09 11:21:43;;;;;;;1.27;0.60;;;;;;;;;;5001692;28;20061;-80
2021/12/09 11:24:19;;;;;;;1.35;0.63;;;;;;;;;;5001007;28;20125;-78
2021/12/09 11:26:59;;;;;;;1.83;0.73;;;;;;;;;;4996068;28;20085;-76
2021/12/09 11:29:43;;;;;;;3.13;1.00;;;;;;;;;;4984818;28;20058;-80
2021/12/09 11:32:23;;;;;;;0.63;0.60;;;;;;;;;;5003395;28;20054;-75
2021/12/09 11:35:05;;;;;;;2.83;0.80;;;;;;;;;;5002539;28;20034;-78
2021/12/09 11:37:36;;;;;;;2.80;0.93;;;;;;;;;;5003175;28;20066;-79
2021/12/09 11:40:13;;;;;;;2.45;0.80;;;;;;;;;;5002049;28;20072;-80
2021/12/09 11:42:53;;;;;;;0.65;0.50;;;;;;;;;;5000957;28;20048;-79
2021/12/09 11:45:40;;;;;;;3.28;0.80;;;;;;;;;;5001495;28;20129;-76
2021/12/09 11:48:12;;;;;;;2.10;0.57;;;;;;;;;;4985589;28;20042;-76
2021/12/09 11:50:46;;;;;;;1.10;0.50;;;;;;;;;;5012628;28;20065;-78
2021/12/09 11:53:16;;;;;;;0.57;0.55;;;;;;;;;;5011759;28;20501;-80
2021/12/09 11:56:08;;;;;;;2.83;0.60;;;;;;;;;;5012393;28;20108;-78
2021/12/09 11:58:55;;;;;;;3.50;3.10;;;;;;;;;;5012757;28;20053;-76
2021/12/09 12:14:04;;;;;;;1.67;0.60;;;;;;;;;;4990936;28;20053;-80
2021/12/09 12:19:35;;;;;;;1.85;0.63;;;;;;;;;;4991157;28;20073;-78
2021/12/09 12:22:41;;;;;;;1.00;0.50;;;;;;;;;;4990306;28;20074;-76
2021/12/09 12:25:34;;;;;;;2.67;0.90;;;;;;;;;;4990753;28;20043;-75
2021/12/09 12:28:33;;;;;;;1.85;0.77;;;;;;;;;;4990713;28;20097;-80
2021/12/09 12:31:25;;;;;;;1.75;0.57;;;;;;;;;;4991052;28;20054;-75
2021/12/09 12:39:48;;;;;;;1.13;1.00;;;;;;;;;;4991471;28;20117;-81
2021/12/09 12:48:16;;;;;;;1.95;0.80;;;;;;;;;;5012594;28;20046;-76
2021/12/09 12:51:02;;;;;;;0.90;0.57;;;;;;;;;;5012277;28;20120;-78
2021/12/09 12:53:35;;;;;;;1.63;0.80;;;;;;;;;;5012729;28;20371;-78
2021/12/09 12:56:10;;;;;;;1.67;0.80;;;;;;;;;;5016023;28;20096;-79
2021/12/09 13:01:46;;;;;;;2.80;0.80;;;;;;;;;;5015803;28;20046;-75
2021/12/09 13:05:18;;;;;;;2.40;0.70;;;;;;;;;;5014777;28;20124;-76
2021/12/09 13:10:50;;;;;;;2.80;1.00;;;;;;;;;;5015209;28;20038;-81
2021/12/09 13:13:28;;;;;;;2.20;0.60;;;;;;;;;;5015464;28;20046;-76
2021/12/09 13:19:10;;;;;;;4.15;0.60;;;;;;;;;;5014050;28;20077;-81
2021/12/09 13:22:17;;;;;;;1.20;0.63;;;;;;;;;;4990974;28;20100;-78
2021/12/09 13:25:30;;;;;;;1.65;0.65;;;;;;;;;;4937932;29;20063;-77
2021/12/09 13:28:13;;;;;;;2.90;1.30;;;;;;;;;;4952815;29;20059;-80
2021/12/09 13:36:26;;;;;;;1.02;0.52;;;;;;;;;;4945508;29;20052;-76
2021/12/09 13:39:17;;;;;;;3.50;0.95;;;;;;;;;;4949255;29;20048;-82
2021/12/09 13:55:19;;;;;;;3.22;0.68;;;;;;;;;;4902155;29;20547;-76
2021/12/09 13:57:54;;;;;;;2.25;0.80;;;;;;;;;;4924740;29;20054;-76
2021/12/09 14:00:27;;;;;;;1.90;0.75;;;;;;;;;;4915015;29;20071;-77
2021/12/09 14:02:57;;;;;;;3.13;0.98;;;;;;;;;;4938372;28;20055;-80
2021/12/09 14:05:25;;;;;;;0.75;0.60;;;;;;;;;;4950713;28;20051;-77
2021/12/09 14:08:04;;;;;;;2.65;0.80;;;;;;;;;;4952421;29;20103;-80
2021/12/09 14:10:37;;;;;;;1.33;0.70;;;;;;;;;;4954309;29;20047;-80
2021/12/09 14:13:15;;;;;;;4.32;0.70;;;;;;;;;;4977589;28;20060;-79
2021/12/09 14:18:39;;;;;;;7.05;0.95;;;;;;;;;;4982553;28;20449;-81
2021/12/09 14:21:07;;;;;;;2.45;0.77;;;;;;;;;;4997678;28;20042;-81
2021/12/09 14:23:36;;;;;;;1.77;0.73;;;;;;;;;;5000616;28;20034;-76
2021/12/09 14:26:05;;;;;;;2.55;1.00;;;;;;;;;;4977757;28;20081;-76
2021/12/09 14:28:34;;;;;;;2.65;0.90;;;;;;;;;;4977579;28;20042;-81
2021/12/09 14:31:03;;;;;;;1.63;0.50;;;;;;;;;;4993972;28;20054;-76
2021/12/09 14:33:32;;;;;;;2.25;0.63;;;;;;;;;;4994387;28;20038;-76
2021/12/09 14:36:05;;;;;;;3.60;0.60;;;;;;;;;;4993255;28;20073;-79
2021/12/09 14:38:36;;;;;;;2.53;0.60;;;;;;;;;;4994319;28;20509;-75
2021/12/09 14:41:25;;;;;;;2.88;0.82;;;;;;;;;;4993977;28;20046;-75
2021/12/09 14:43:54;;;;;;;3.55;0.90;;;;;;;;;;4976731;28;20097;-77
2021/12/09 14:46:27;;;;;;;3.63;0.82;;;;;;;;;;4994235;28;20053;-79
2021/12/09 14:49:03;;;;;;;1.65;0.52;;;;;;;;;;4994339;28;20564;-79
2021/12/09 14:51:35;;;;;;;2.65;0.88;;;;;;;;;;5000198;28;20153;-79
2021/12/09 14:54:02;;;;;;;1.17;0.77;;;;;;;;;;5029102;28;20050;-80
2021/12/09 14:57:05;;;;;;;2.67;1.33;;;;;;;;;;5013966;28;20097;-81
2021/12/09 14:59:37;;;;;;;3.13;1.15;;;;;;;;;;5014392;28;20069;-80
2021/12/09 15:02:12;;;;;;;3.33;1.00;;;;;;;;;;5013741;28;20497;-79
2021/12/09 15:04:53;;;;;;;1.27;0.80;;;;;;;;;;5014725;28;20042;-77
2021/12/09 15:07:30;;;;;;;3.15;0.70;;;;;;;;;;4980776;28;20132;-81
2021/12/09 15:10:10;;;;;;;2.95;0.90;;;;;;;;;;5013116;28;20053;-77
2021/12/09 15:12:44;;;;;;;2.65;1.00;;;;;;;;;;5028712;28;20069;-77
2021/12/09 15:15:23;;;;;;;0.85;0.63;;;;;;;;;;5012936;28;20117;-77
2021/12/09 15:17:58;;;;;;;5.50;1.05;;;;;;;;;;5028288;28;20048;-77
2021/12/09 15:20:35;;;;;;;3.40;1.00;;;;;;;;;;5013116;28;20354;-82
2021/12/09 15:23:13;;;;;;;3.65;1.10;;;;;;;;;;5027885;28;20073;-82
2021/12/09 15:25:42;;;;;;;2.40;1.23;;;;;;;;;;5013555;28;20128;-80
2021/12/09 15:28:19;;;;;;;2.70;1.42;;;;;;;;;;5012322;28;20041;-77
2021/12/09 15:31:02;;;;;;;4.85;1.15;;;;;;;;;;5012927;28;20080;-77
2021/12/09 15:33:45;;;;;;;9.45;1.30;;;;;;;;;;5012689;28;20042;-80
2021/12/09 15:36:25;;;;;;;6.35;1.55;;;;;;;;;;5027818;28;20046;-80
2021/12/09 15:39:13;;;;;;;4.60;1.60;;;;;;;;;;5027630;28;20052;-82
2021/12/09 15:41:41;;;;;;;3.38;1.20;;;;;;;;;;5013501;28;20044;-78
2021/12/09 15:44:14;;;;;;;5.22;1.27;;;;;;;;;;5013129;28;20053;-82
2021/12/09 15:46:46;;;;;;;6.45;1.27;;;;;;;;;;5027581;28;20046;-79
2021/12/09 15:49:17;;;;;;;6.30;1.23;;;;;;;;;;5012622;28;20046;-82
2021/12/09 15:51:48;;;;;;;3.97;1.15;;;;;;;;;;5010957;28;20422;-77
2021/12/09 15:54:18;;;;;;;5.43;1.33;;;;;;;;;;5012746;28;20096;-77
2021/12/09 15:56:47;;;;;;;6.75;1.33;;;;;;;;;;5013148;28;20045;-80
2021/12/09 15:59:17;;;;;;;6.82;1.15;;;;;;;;;;5027932;28;20506;-80
2021/12/09 16:01:47;;;;;;;2.75;1.10;;;;;;;;;;5012901;28;20474;-82
2021/12/09 16:04:15;;;;;;;2.15;1.38;;;;;;;;;;5013066;28;20124;-82
2021/12/09 16:06:43;;;;;;;3.53;1.23;;;;;;;;;;5012828;28;20056;-79
2021/12/09 16:09:13;;;;;;;5.47;2.20;;;;;;;;;;5027755;28;20515;-82
2021/12/09 16:11:44;;;;;;;7.30;1.70;;;;;;;;;;5011655;28;20054;-79
2021/12/09 16:14:15;;;;;;;5.45;1.80;;;;;;;;;;5027624;28;20062;-79